Flight Track Log - Related Links

Times and Time Zones

All times are in EDT time to prevent confusion due to time zone crossing. See the EJA831 flight status page for this flight to view local times or setup timezone preferences in your user account.

Time Position Orientation Groundspeed Altitude Reporting Facility
EDT Latitude Longitude Course Direction KTS MPH feet Rate Location/Type
Fri 10:15:42 AM 42.1667 -71.1500 158° South 191 220 1,300  Level KA90
Fri 10:16:43 AM 42.1092 -71.1192 158° South 248 285 4,600 3,471 Climbing Boston Center
Fri 10:17:43 AM 42.0442 -71.0758 154° Southeast 289 333 8,300 3,650 Climbing Boston Center
Fri 10:18:43 AM 41.9767 -71.0103 144° Southeast 289 333 11,900 1,866 Climbing Boston Center
Fri 10:19:42 AM 41.9233 -70.9111 126° Southeast 313 360 12,000  Climbing Boston Center
Fri 10:20:43 AM 41.8739 -70.8203 126° Southeast 333 383 11,900 -50 Descending Boston Center
Fri 10:21:43 AM 41.7903 -70.7861 163° South 316 364 11,900 50 Level Boston Center
Fri 10:22:43 AM 41.7058 -70.8578 212° Southwest 277 319 12,000 50 Climbing Boston Center
Fri 10:23:42 AM 41.6525 -70.9231 222° Southwest 258 297 12,000  Level Boston Center
Fri 10:24:43 AM 41.5950 -70.9994 225° Southwest 284 327 12,000  Level Boston Center
Fri 10:25:43 AM 41.5356 -71.0811 226° Southwest 303 349 12,000  Level Boston Center
Fri 10:26:43 AM 41.4803 -71.1572 226° Southwest 308 354 12,000  Level Boston Center
Fri 10:27:43 AM 41.4103 -71.2472 224° Southwest 313 360 12,000  Level Boston Center
Fri 10:28:43 AM 41.3569 -71.3256 228° Southwest 319 367 12,000  Level Boston Center
Fri 10:29:43 AM 41.2869 -71.4181 225° Southwest 324 373 12,000  Level Boston Center
Fri 10:30:43 AM 41.2314 -71.4933 226° Southwest 324 373 12,000 50 Level Boston Center
Fri 10:31:43 AM 41.1675 -71.5908 229° Southwest 324 373 12,100  Climbing Boston Center
Fri 10:32:43 AM 41.1558 -71.6875 261° West 307 353 12,000  Descending Boston Center
Fri 10:33:54 AM 41.1378 -71.8144 259° West 307 353 12,100  Climbing Boston Center
Fri 10:34:55 AM 41.1197 -71.9414 259° West 307 353 12,000 -50 Descending Boston Center
Fri 10:35:55 AM 41.1075 -72.0517 262° West 307 353 12,000  Level Boston Center
Fri 10:36:55 AM 41.0872 -72.1592 256° West 307 353 12,000  Level Boston Center
Fri 10:37:55 AM 41.0436 -72.2586 240° Southwest 307 353 12,000  Level Boston Center
Fri 10:38:55 AM 40.9978 -72.3575 238° Southwest 318 366 12,000  Level Boston Center
Fri 10:39:55 AM 40.9519 -72.4567 239° Southwest 318 366 12,000  Level Boston Center
Fri 10:40:55 AM 40.9061 -72.5528 238° Southwest 318 366 12,000  Level Boston Center
Fri 10:41:55 AM 40.8622 -72.6597 242° Southwest 318 366 12,000 50 Level Boston Center
Fri 10:42:54 AM 40.8167 -72.7500 236° Southwest 293 337 12,100 50 Climbing New York TRACON
Fri 10:43:54 AM 40.7833 -72.8333 242° Southwest 298 343 12,100 -333 Level New York TRACON
Fri 10:45:00 AM 40.7500 -72.9500 249° West 285 328 11,400 -1,333 Descending New York TRACON
Fri 10:46:00 AM 40.7333 -73.0500 258° West 277 319 9,300 -2,050 Descending New York TRACON
Fri 10:47:00 AM 40.7167 -73.1500 258° West 275 316 7,300 -1,800 Descending New York TRACON
Fri 10:48:00 AM 40.7000 -73.2333 255° West 276 318 5,700 -1,100 Descending New York TRACON
Fri 10:49:00 AM 40.7500 -73.3167 308° West 266 306 5,100 -350 Descending New York TRACON
Fri 10:50:00 AM 40.7833 -73.4000 298° West 268 308 5,000 -900 Descending New York TRACON
Fri 10:51:00 AM 40.8167 -73.4833 298° West 257 296 3,300 -1,316 Descending New York TRACON
Fri 10:51:54 AM 40.8167 -73.5667 270° West 256 295 2,500 -600 Descending New York TRACON
Fri 10:53:00 AM 40.7667 -73.6500 232° Southwest 242 278 2,100 -364 Descending New York TRACON

Login

Don't have an account? Register now (free) for customized features, flight alerts, and more!